sensor_id;sensor_type;location;lat;lon;timestamp;P1;durP1;ratioP1;P2;durP2;ratioP2
5499;SDS011;2772;42.700;23.304;2023-03-26T00:01:52;0.93;;;0.57;;
5499;SDS011;2772;42.700;23.304;2023-03-26T00:04:19;2.20;;;1.00;;
5499;SDS011;2772;42.700;23.304;2023-03-26T00:06:46;2.50;;;1.50;;
5499;SDS011;2772;42.700;23.304;2023-03-26T00:09:13;4.53;;;2.10;;
5499;SDS011;2772;42.700;23.304;2023-03-26T00:11:41;3.40;;;2.60;;
5499;SDS011;2772;42.700;23.304;2023-03-26T00:14:09;1.37;;;0.90;;
5499;SDS011;2772;42.700;23.304;2023-03-26T00:16:38;1.10;;;0.70;;
5499;SDS011;2772;42.700;23.304;2023-03-26T00:19:08;2.60;;;0.70;;
5499;SDS011;2772;42.700;23.304;2023-03-26T00:21:35;1.27;;;0.60;;
5499;SDS011;2772;42.700;23.304;2023-03-26T00:24:03;1.20;;;0.80;;
5499;SDS011;2772;42.700;23.304;2023-03-26T00:26:31;2.13;;;0.73;;
5499;SDS011;2772;42.700;23.304;2023-03-26T00:28:59;1.00;;;0.80;;
5499;SDS011;2772;42.700;23.304;2023-03-26T00:31:27;1.63;;;0.83;;
5499;SDS011;2772;42.700;23.304;2023-03-26T00:33:54;1.10;;;0.70;;
5499;SDS011;2772;42.700;23.304;2023-03-26T00:36:23;1.23;;;0.83;;
5499;SDS011;2772;42.700;23.304;2023-03-26T00:38:50;1.93;;;1.53;;
5499;SDS011;2772;42.700;23.304;2023-03-26T00:41:18;1.00;;;0.70;;
5499;SDS011;2772;42.700;23.304;2023-03-26T00:43:50;0.90;;;0.60;;
5499;SDS011;2772;42.700;23.304;2023-03-26T00:46:20;2.70;;;0.87;;
5499;SDS011;2772;42.700;23.304;2023-03-26T00:48:47;1.50;;;0.80;;
5499;SDS011;2772;42.700;23.304;2023-03-26T00:51:15;3.33;;;0.70;;
5499;SDS011;2772;42.700;23.304;2023-03-26T00:53:44;1.00;;;0.63;;
5499;SDS011;2772;42.700;23.304;2023-03-26T00:56:12;2.43;;;0.80;;
5499;SDS011;2772;42.700;23.304;2023-03-26T00:58:39;0.90;;;0.70;;
5499;SDS011;2772;42.700;23.304;2023-03-26T01:01:07;1.20;;;0.67;;
5499;SDS011;2772;42.700;23.304;2023-03-26T01:03:38;2.07;;;0.97;;
5499;SDS011;2772;42.700;23.304;2023-03-26T01:06:06;1.10;;;0.83;;
5499;SDS011;2772;42.700;23.304;2023-03-26T01:08:37;2.97;;;1.10;;
5499;SDS011;2772;42.700;23.304;2023-03-26T01:11:08;4.63;;;1.20;;
5499;SDS011;2772;42.700;23.304;2023-03-26T01:13:40;1.10;;;1.00;;
5499;SDS011;2772;42.700;23.304;2023-03-26T01:16:13;1.20;;;0.90;;
5499;SDS011;2772;42.700;23.304;2023-03-26T01:18:44;1.30;;;0.60;;
5499;SDS011;2772;42.700;23.304;2023-03-26T01:21:12;1.00;;;0.83;;
5499;SDS011;2772;42.700;23.304;2023-03-26T01:23:47;2.43;;;0.90;;
5499;SDS011;2772;42.700;23.304;2023-03-26T01:26:26;0.90;;;0.80;;
5499;SDS011;2772;42.700;23.304;2023-03-26T01:29:13;0.97;;;0.60;;
5499;SDS011;2772;42.700;23.304;2023-03-26T01:31:47;1.00;;;0.60;;
5499;SDS011;2772;42.700;23.304;2023-03-26T01:34:23;1.00;;;0.70;;
5499;SDS011;2772;42.700;23.304;2023-03-26T01:37:00;0.90;;;0.60;;
5499;SDS011;2772;42.700;23.304;2023-03-26T01:39:34;0.80;;;0.50;;
5499;SDS011;2772;42.700;23.304;2023-03-26T01:42:16;1.47;;;0.60;;
5499;SDS011;2772;42.700;23.304;2023-03-26T01:44:51;1.10;;;0.80;;
5499;SDS011;2772;42.700;23.304;2023-03-26T01:47:22;1.10;;;0.70;;
5499;SDS011;2772;42.700;23.304;2023-03-26T01:49:49;1.27;;;0.70;;
5499;SDS011;2772;42.700;23.304;2023-03-26T01:52:16;0.80;;;0.53;;
5499;SDS011;2772;42.700;23.304;2023-03-26T01:54:46;2.70;;;0.90;;
5499;SDS011;2772;42.700;23.304;2023-03-26T01:57:16;1.40;;;0.70;;
5499;SDS011;2772;42.700;23.304;2023-03-26T02:02:44;1.00;;;0.83;;
5499;SDS011;2772;42.700;23.304;2023-03-26T02:05:23;1.23;;;0.70;;
5499;SDS011;2772;42.700;23.304;2023-03-26T02:07:56;2.53;;;0.73;;
5499;SDS011;2772;42.700;23.304;2023-03-26T02:10:29;1.20;;;1.10;;
5499;SDS011;2772;42.700;23.304;2023-03-26T02:13:00;1.57;;;0.80;;
5499;SDS011;2772;42.700;23.304;2023-03-26T02:15:27;3.23;;;1.20;;
5499;SDS011;2772;42.700;23.304;2023-03-26T02:17:54;3.30;;;1.10;;
5499;SDS011;2772;42.700;23.304;2023-03-26T02:20:23;1.03;;;0.93;;
5499;SDS011;2772;42.700;23.304;2023-03-26T02:22:54;1.00;;;0.80;;
5499;SDS011;2772;42.700;23.304;2023-03-26T02:25:21;1.40;;;1.30;;
5499;SDS011;2772;42.700;23.304;2023-03-26T02:27:48;1.50;;;1.40;;
5499;SDS011;2772;42.700;23.304;2023-03-26T02:30:19;2.43;;;1.17;;
5499;SDS011;2772;42.700;23.304;2023-03-26T02:32:49;1.17;;;1.07;;
5499;SDS011;2772;42.700;23.304;2023-03-26T02:35:18;2.80;;;1.20;;
5499;SDS011;2772;42.700;23.304;2023-03-26T02:37:45;0.93;;;0.83;;
5499;SDS011;2772;42.700;23.304;2023-03-26T02:40:15;2.20;;;1.03;;
5499;SDS011;2772;42.700;23.304;2023-03-26T02:42:42;4.03;;;1.53;;
5499;SDS011;2772;42.700;23.304;2023-03-26T02:45:09;2.80;;;1.20;;
5499;SDS011;2772;42.700;23.304;2023-03-26T02:47:37;1.30;;;1.20;;
5499;SDS011;2772;42.700;23.304;2023-03-26T02:50:04;1.13;;;1.03;;
5499;SDS011;2772;42.700;23.304;2023-03-26T02:52:33;2.53;;;1.43;;
5499;SDS011;2772;42.700;23.304;2023-03-26T02:55:00;1.27;;;1.17;;
5499;SDS011;2772;42.700;23.304;2023-03-26T02:57:27;1.33;;;1.23;;
5499;SDS011;2772;42.700;23.304;2023-03-26T02:59:53;1.40;;;1.30;;
5499;SDS011;2772;42.700;23.304;2023-03-26T03:02:20;1.50;;;1.40;;
5499;SDS011;2772;42.700;23.304;2023-03-26T03:04:49;1.47;;;1.37;;
5499;SDS011;2772;42.700;23.304;2023-03-26T03:07:16;1.93;;;1.60;;
5499;SDS011;2772;42.700;23.304;2023-03-26T03:09:44;4.47;;;1.47;;
5499;SDS011;2772;42.700;23.304;2023-03-26T03:12:11;1.53;;;1.43;;
5499;SDS011;2772;42.700;23.304;2023-03-26T03:14:37;10.40;;;2.30;;
5499;SDS011;2772;42.700;23.304;2023-03-26T03:17:04;7.30;;;1.90;;
5499;SDS011;2772;42.700;23.304;2023-03-26T03:19:31;2.10;;;2.00;;
5499;SDS011;2772;42.700;23.304;2023-03-26T03:21:59;5.70;;;2.90;;
5499;SDS011;2772;42.700;23.304;2023-03-26T03:24:26;2.70;;;2.50;;
5499;SDS011;2772;42.700;23.304;2023-03-26T03:26:52;2.60;;;2.40;;
5499;SDS011;2772;42.700;23.304;2023-03-26T03:29:20;2.50;;;2.40;;
5499;SDS011;2772;42.700;23.304;2023-03-26T03:31:47;2.03;;;1.93;;
5499;SDS011;2772;42.700;23.304;2023-03-26T03:34:14;3.37;;;3.10;;
5499;SDS011;2772;42.700;23.304;2023-03-26T03:36:41;3.30;;;3.00;;
5499;SDS011;2772;42.700;23.304;2023-03-26T03:39:14;2.77;;;2.57;;
5499;SDS011;2772;42.700;23.304;2023-03-26T03:41:40;2.73;;;2.53;;
5499;SDS011;2772;42.700;23.304;2023-03-26T03:44:07;2.50;;;2.40;;
5499;SDS011;2772;42.700;23.304;2023-03-26T03:46:34;3.83;;;2.93;;
5499;SDS011;2772;42.700;23.304;2023-03-26T03:49:01;2.27;;;2.17;;
5499;SDS011;2772;42.700;23.304;2023-03-26T03:51:28;3.80;;;2.63;;
5499;SDS011;2772;42.700;23.304;2023-03-26T03:53:55;2.40;;;2.30;;
5499;SDS011;2772;42.700;23.304;2023-03-26T03:56:23;3.10;;;2.80;;
5499;SDS011;2772;42.700;23.304;2023-03-26T03:58:50;2.47;;;2.27;;
5499;SDS011;2772;42.700;23.304;2023-03-26T04:01:17;3.23;;;2.00;;
5499;SDS011;2772;42.700;23.304;2023-03-26T04:03:46;3.67;;;2.40;;
5499;SDS011;2772;42.700;23.304;2023-03-26T04:06:14;2.43;;;2.23;;
5499;SDS011;2772;42.700;23.304;2023-03-26T04:08:42;2.67;;;2.47;;
5499;SDS011;2772;42.700;23.304;2023-03-26T04:11:09;2.27;;;2.17;;
5499;SDS011;2772;42.700;23.304;2023-03-26T04:13:38;3.20;;;2.57;;
5499;SDS011;2772;42.700;23.304;2023-03-26T04:16:05;3.00;;;2.80;;
5499;SDS011;2772;42.700;23.304;2023-03-26T04:18:32;2.33;;;2.23;;
5499;SDS011;2772;42.700;23.304;2023-03-26T04:20:58;3.07;;;2.87;;
5499;SDS011;2772;42.700;23.304;2023-03-26T04:23:27;7.97;;;3.20;;
5499;SDS011;2772;42.700;23.304;2023-03-26T04:25:54;3.13;;;2.90;;
5499;SDS011;2772;42.700;23.304;2023-03-26T04:28:24;2.63;;;2.50;;
5499;SDS011;2772;42.700;23.304;2023-03-26T04:30:56;6.53;;;2.97;;
5499;SDS011;2772;42.700;23.304;2023-03-26T04:33:26;3.10;;;2.90;;
5499;SDS011;2772;42.700;23.304;2023-03-26T04:35:53;2.97;;;2.77;;
5499;SDS011;2772;42.700;23.304;2023-03-26T04:38:25;3.27;;;3.03;;
5499;SDS011;2772;42.700;23.304;2023-03-26T04:40:53;7.33;;;3.30;;
5499;SDS011;2772;42.700;23.304;2023-03-26T04:43:24;3.80;;;3.50;;
5499;SDS011;2772;42.700;23.304;2023-03-26T04:45:51;3.40;;;3.20;;
5499;SDS011;2772;42.700;23.304;2023-03-26T04:48:19;3.67;;;3.40;;
5499;SDS011;2772;42.700;23.304;2023-03-26T04:50:46;3.93;;;3.63;;
5499;SDS011;2772;42.700;23.304;2023-03-26T04:53:14;5.43;;;4.17;;
5499;SDS011;2772;42.700;23.304;2023-03-26T04:55:44;4.33;;;4.00;;
5499;SDS011;2772;42.700;23.304;2023-03-26T04:58:16;3.90;;;3.67;;
5499;SDS011;2772;42.700;23.304;2023-03-26T05:00:43;12.93;;;4.07;;
5499;SDS011;2772;42.700;23.304;2023-03-26T05:03:11;3.90;;;3.60;;
5499;SDS011;2772;42.700;23.304;2023-03-26T05:05:39;5.67;;;4.17;;
5499;SDS011;2772;42.700;23.304;2023-03-26T05:08:06;6.07;;;4.17;;
5499;SDS011;2772;42.700;23.304;2023-03-26T05:10:33;4.80;;;4.40;;
5499;SDS011;2772;42.700;23.304;2023-03-26T05:13:00;7.50;;;4.93;;
5499;SDS011;2772;42.700;23.304;2023-03-26T05:15:26;9.80;;;4.97;;
5499;SDS011;2772;42.700;23.304;2023-03-26T05:17:53;7.10;;;4.07;;
5499;SDS011;2772;42.700;23.304;2023-03-26T05:20:21;4.43;;;4.03;;
5499;SDS011;2772;42.700;23.304;2023-03-26T05:22:51;6.30;;;4.60;;
5499;SDS011;2772;42.700;23.304;2023-03-26T05:25:18;5.07;;;4.67;;
5499;SDS011;2772;42.700;23.304;2023-03-26T05:27:45;5.10;;;4.70;;
5499;SDS011;2772;42.700;23.304;2023-03-26T05:30:12;6.23;;;5.63;;
5499;SDS011;2772;42.700;23.304;2023-03-26T05:32:40;5.60;;;5.10;;
5499;SDS011;2772;42.700;23.304;2023-03-26T05:35:07;6.70;;;5.90;;
5499;SDS011;2772;42.700;23.304;2023-03-26T05:37:34;7.90;;;6.23;;
5499;SDS011;2772;42.700;23.304;2023-03-26T05:40:04;9.00;;;6.33;;
5499;SDS011;2772;42.700;23.304;2023-03-26T05:42:38;13.90;;;7.03;;
5499;SDS011;2772;42.700;23.304;2023-03-26T05:45:05;8.60;;;6.70;;
5499;SDS011;2772;42.700;23.304;2023-03-26T05:47:33;9.23;;;6.83;;
5499;SDS011;2772;42.700;23.304;2023-03-26T05:50:00;6.37;;;5.77;;
5499;SDS011;2772;42.700;23.304;2023-03-26T05:52:27;7.00;;;6.30;;
5499;SDS011;2772;42.700;23.304;2023-03-26T05:54:55;11.07;;;7.10;;
5499;SDS011;2772;42.700;23.304;2023-03-26T05:57:23;11.13;;;7.50;;
5499;SDS011;2772;42.700;23.304;2023-03-26T05:59:52;14.00;;;6.80;;
5499;SDS011;2772;42.700;23.304;2023-03-26T06:02:19;6.10;;;5.50;;
5499;SDS011;2772;42.700;23.304;2023-03-26T06:04:46;7.57;;;6.47;;
5499;SDS011;2772;42.700;23.304;2023-03-26T06:07:12;7.40;;;6.20;;
5499;SDS011;2772;42.700;23.304;2023-03-26T06:09:40;7.10;;;6.30;;
5499;SDS011;2772;42.700;23.304;2023-03-26T06:12:08;11.50;;;7.30;;
5499;SDS011;2772;42.700;23.304;2023-03-26T06:14:37;7.13;;;6.17;;
5499;SDS011;2772;42.700;23.304;2023-03-26T06:17:03;9.97;;;6.83;;
5499;SDS011;2772;42.700;23.304;2023-03-26T06:19:30;11.17;;;7.53;;
5499;SDS011;2772;42.700;23.304;2023-03-26T06:21:57;11.03;;;8.00;;
5499;SDS011;2772;42.700;23.304;2023-03-26T06:24:23;14.63;;;9.30;;
5499;SDS011;2772;42.700;23.304;2023-03-26T06:26:50;16.10;;;9.40;;
5499;SDS011;2772;42.700;23.304;2023-03-26T06:29:17;8.97;;;7.17;;
5499;SDS011;2772;42.700;23.304;2023-03-26T06:31:45;6.87;;;6.27;;
5499;SDS011;2772;42.700;23.304;2023-03-26T06:34:12;10.60;;;7.80;;
5499;SDS011;2772;42.700;23.304;2023-03-26T06:36:39;10.10;;;7.20;;
5499;SDS011;2772;42.700;23.304;2023-03-26T06:39:05;10.03;;;7.50;;
5499;SDS011;2772;42.700;23.304;2023-03-26T06:41:32;10.00;;;7.87;;
5499;SDS011;2772;42.700;23.304;2023-03-26T06:43:59;7.93;;;6.10;;
5499;SDS011;2772;42.700;23.304;2023-03-26T06:46:26;12.90;;;9.60;;
5499;SDS011;2772;42.700;23.304;2023-03-26T06:48:54;14.00;;;10.00;;
5499;SDS011;2772;42.700;23.304;2023-03-26T06:51:21;10.80;;;7.60;;
5499;SDS011;2772;42.700;23.304;2023-03-26T06:53:48;9.70;;;6.57;;
5499;SDS011;2772;42.700;23.304;2023-03-26T06:56:14;21.87;;;14.53;;
5499;SDS011;2772;42.700;23.304;2023-03-26T06:58:41;7.73;;;6.93;;
5499;SDS011;2772;42.700;23.304;2023-03-26T07:01:08;9.57;;;7.30;;
5499;SDS011;2772;42.700;23.304;2023-03-26T07:03:34;7.97;;;6.70;;
5499;SDS011;2772;42.700;23.304;2023-03-26T07:06:03;11.50;;;7.53;;
5499;SDS011;2772;42.700;23.304;2023-03-26T07:08:30;6.27;;;5.67;;
5499;SDS011;2772;42.700;23.304;2023-03-26T07:10:56;7.30;;;5.87;;
5499;SDS011;2772;42.700;23.304;2023-03-26T07:13:23;10.13;;;6.83;;
5499;SDS011;2772;42.700;23.304;2023-03-26T07:15:50;8.33;;;7.07;;
5499;SDS011;2772;42.700;23.304;2023-03-26T07:18:16;10.77;;;7.70;;
5499;SDS011;2772;42.700;23.304;2023-03-26T07:20:43;9.50;;;7.33;;
5499;SDS011;2772;42.700;23.304;2023-03-26T07:23:12;16.70;;;8.77;;
5499;SDS011;2772;42.700;23.304;2023-03-26T07:25:44;5.97;;;5.37;;
5499;SDS011;2772;42.700;23.304;2023-03-26T07:28:12;6.90;;;6.07;;
5499;SDS011;2772;42.700;23.304;2023-03-26T07:30:52;10.30;;;7.90;;
5499;SDS011;2772;42.700;23.304;2023-03-26T07:33:27;14.60;;;7.20;;
5499;SDS011;2772;42.700;23.304;2023-03-26T07:36:01;13.00;;;7.63;;
5499;SDS011;2772;42.700;23.304;2023-03-26T07:38:43;11.00;;;6.53;;
5499;SDS011;2772;42.700;23.304;2023-03-26T07:41:22;11.63;;;7.03;;
5499;SDS011;2772;42.700;23.304;2023-03-26T07:43:57;8.33;;;6.97;;
5499;SDS011;2772;42.700;23.304;2023-03-26T07:46:33;9.97;;;7.20;;
5499;SDS011;2772;42.700;23.304;2023-03-26T07:49:01;9.27;;;7.90;;
5499;SDS011;2772;42.700;23.304;2023-03-26T07:51:28;7.70;;;6.50;;
5499;SDS011;2772;42.700;23.304;2023-03-26T07:53:57;6.53;;;5.00;;
5499;SDS011;2772;42.700;23.304;2023-03-26T07:56:25;9.00;;;6.23;;
5499;SDS011;2772;42.700;23.304;2023-03-26T07:59:02;6.33;;;5.83;;
5499;SDS011;2772;42.700;23.304;2023-03-26T08:01:40;6.73;;;5.60;;
5499;SDS011;2772;42.700;23.304;2023-03-26T08:04:22;4.83;;;4.43;;
5499;SDS011;2772;42.700;23.304;2023-03-26T08:07:02;6.90;;;5.60;;
5499;SDS011;2772;42.700;23.304;2023-03-26T08:09:37;6.40;;;4.27;;
5499;SDS011;2772;42.700;23.304;2023-03-26T08:12:09;5.53;;;4.30;;
5499;SDS011;2772;42.700;23.304;2023-03-26T08:14:47;5.50;;;5.00;;
5499;SDS011;2772;42.700;23.304;2023-03-26T08:17:25;6.20;;;5.03;;
5499;SDS011;2772;42.700;23.304;2023-03-26T08:19:59;5.23;;;4.77;;
5499;SDS011;2772;42.700;23.304;2023-03-26T08:22:33;5.30;;;4.80;;
5499;SDS011;2772;42.700;23.304;2023-03-26T08:25:21;5.87;;;4.60;;
5499;SDS011;2772;42.700;23.304;2023-03-26T08:27:58;7.20;;;5.80;;
5499;SDS011;2772;42.700;23.304;2023-03-26T08:30:30;7.43;;;4.00;;
5499;SDS011;2772;42.700;23.304;2023-03-26T08:32:58;4.53;;;4.13;;
5499;SDS011;2772;42.700;23.304;2023-03-26T08:35:27;4.80;;;4.37;;
5499;SDS011;2772;42.700;23.304;2023-03-26T08:37:54;14.87;;;6.07;;
5499;SDS011;2772;42.700;23.304;2023-03-26T08:40:28;5.00;;;4.47;;
5499;SDS011;2772;42.700;23.304;2023-03-26T08:43:17;6.43;;;3.90;;
5499;SDS011;2772;42.700;23.304;2023-03-26T08:46:11;3.97;;;3.73;;
5499;SDS011;2772;42.700;23.304;2023-03-26T08:49:02;4.13;;;3.73;;
5499;SDS011;2772;42.700;23.304;2023-03-26T08:54:45;4.80;;;3.73;;
5499;SDS011;2772;42.700;23.304;2023-03-26T08:57:28;6.90;;;5.60;;
5499;SDS011;2772;42.700;23.304;2023-03-26T09:00:24;6.33;;;4.00;;
5499;SDS011;2772;42.700;23.304;2023-03-26T09:03:15;5.50;;;3.83;;
5499;SDS011;2772;42.700;23.304;2023-03-26T09:15:33;6.30;;;3.30;;
5499;SDS011;2772;42.700;23.304;2023-03-26T09:18:37;4.00;;;3.10;;
5499;SDS011;2772;42.700;23.304;2023-03-26T09:24:31;4.00;;;3.30;;
5499;SDS011;2772;42.700;23.304;2023-03-26T09:27:21;2.77;;;2.57;;
5499;SDS011;2772;42.700;23.304;2023-03-26T09:38:47;3.73;;;2.40;;
5499;SDS011;2772;42.700;23.304;2023-03-26T09:41:19;2.27;;;2.07;;
5499;SDS011;2772;42.700;23.304;2023-03-26T09:47:14;1.90;;;1.80;;
5499;SDS011;2772;42.700;23.304;2023-03-26T09:50:14;3.03;;;1.77;;
5499;SDS011;2772;42.700;23.304;2023-03-26T09:52:59;3.73;;;2.00;;
5499;SDS011;2772;42.700;23.304;2023-03-26T09:55:48;2.97;;;1.97;;
5499;SDS011;2772;42.700;23.304;2023-03-26T09:58:28;2.60;;;2.40;;
5499;SDS011;2772;42.700;23.304;2023-03-26T10:01:07;4.03;;;2.47;;
5499;SDS011;2772;42.700;23.304;2023-03-26T10:03:40;59.53;;;20.67;;
5499;SDS011;2772;42.700;23.304;2023-03-26T10:09:12;2.10;;;1.90;;
5499;SDS011;2772;42.700;23.304;2023-03-26T10:14:41;5.23;;;3.23;;
5499;SDS011;2772;42.700;23.304;2023-03-26T10:17:26;6.90;;;2.00;;
5499;SDS011;2772;42.700;23.304;2023-03-26T10:20:14;1.90;;;1.80;;
5499;SDS011;2772;42.700;23.304;2023-03-26T10:22:58;7.50;;;4.60;;
5499;SDS011;2772;42.700;23.304;2023-03-26T10:25:34;4.27;;;1.97;;
5499;SDS011;2772;42.700;23.304;2023-03-26T10:28:25;5.27;;;2.03;;
5499;SDS011;2772;42.700;23.304;2023-03-26T10:31:14;2.40;;;2.20;;
5499;SDS011;2772;42.700;23.304;2023-03-26T10:33:53;22.73;;;10.10;;
5499;SDS011;2772;42.700;23.304;2023-03-26T10:36:30;2.43;;;2.23;;
5499;SDS011;2772;42.700;23.304;2023-03-26T10:39:10;2.93;;;2.60;;
5499;SDS011;2772;42.700;23.304;2023-03-26T10:41:50;1.43;;;1.33;;
5499;SDS011;2772;42.700;23.304;2023-03-26T10:44:31;5.63;;;1.50;;
5499;SDS011;2772;42.700;23.304;2023-03-26T10:47:23;3.83;;;1.63;;
5499;SDS011;2772;42.700;23.304;2023-03-26T10:50:29;2.30;;;2.10;;
5499;SDS011;2772;42.700;23.304;2023-03-26T10:53:19;2.30;;;1.23;;
5499;SDS011;2772;42.700;23.304;2023-03-26T10:55:56;1.10;;;1.00;;
5499;SDS011;2772;42.700;23.304;2023-03-26T10:58:30;1.33;;;1.23;;
5499;SDS011;2772;42.700;23.304;2023-03-26T11:00:58;1.70;;;1.30;;
5499;SDS011;2772;42.700;23.304;2023-03-26T11:03:31;2.60;;;1.40;;
5499;SDS011;2772;42.700;23.304;2023-03-26T11:06:14;1.00;;;0.80;;
5499;SDS011;2772;42.700;23.304;2023-03-26T11:08:52;1.13;;;1.03;;
5499;SDS011;2772;42.700;23.304;2023-03-26T11:11:30;4.80;;;1.40;;
5499;SDS011;2772;42.700;23.304;2023-03-26T11:14:03;1.43;;;1.03;;
5499;SDS011;2772;42.700;23.304;2023-03-26T11:16:40;1.20;;;0.80;;
5499;SDS011;2772;42.700;23.304;2023-03-26T11:19:15;5.27;;;1.10;;
5499;SDS011;2772;42.700;23.304;2023-03-26T11:21:49;1.70;;;1.30;;
5499;SDS011;2772;42.700;23.304;2023-03-26T11:24:28;1.87;;;1.23;;
5499;SDS011;2772;42.700;23.304;2023-03-26T11:27:10;2.90;;;1.23;;
5499;SDS011;2772;42.700;23.304;2023-03-26T11:29:45;2.07;;;1.50;;
5499;SDS011;2772;42.700;23.304;2023-03-26T11:32:19;1.77;;;1.67;;
5499;SDS011;2772;42.700;23.304;2023-03-26T11:34:53;4.20;;;1.77;;
5499;SDS011;2772;42.700;23.304;2023-03-26T11:37:26;2.30;;;0.97;;
5499;SDS011;2772;42.700;23.304;2023-03-26T11:39:58;3.33;;;1.40;;
5499;SDS011;2772;42.700;23.304;2023-03-26T11:42:32;12.13;;;1.17;;
5499;SDS011;2772;42.700;23.304;2023-03-26T11:45:01;2.30;;;0.87;;
5499;SDS011;2772;42.700;23.304;2023-03-26T11:47:31;1.00;;;0.70;;
5499;SDS011;2772;42.700;23.304;2023-03-26T11:50:04;4.90;;;1.43;;
5499;SDS011;2772;42.700;23.304;2023-03-26T11:52:34;2.50;;;1.50;;
5499;SDS011;2772;42.700;23.304;2023-03-26T11:55:01;1.30;;;1.20;;
5499;SDS011;2772;42.700;23.304;2023-03-26T11:57:28;1.30;;;1.00;;
5499;SDS011;2772;42.700;23.304;2023-03-26T12:00:00;1.67;;;1.57;;
5499;SDS011;2772;42.700;23.304;2023-03-26T12:02:36;5.87;;;2.87;;
5499;SDS011;2772;42.700;23.304;2023-03-26T12:05:18;1.10;;;0.90;;
5499;SDS011;2772;42.700;23.304;2023-03-26T12:07:48;8.20;;;5.70;;
5499;SDS011;2772;42.700;23.304;2023-03-26T12:10:21;3.53;;;2.67;;
5499;SDS011;2772;42.700;23.304;2023-03-26T12:12:55;1.70;;;1.60;;
5499;SDS011;2772;42.700;23.304;2023-03-26T12:15:25;3.40;;;3.00;;
5499;SDS011;2772;42.700;23.304;2023-03-26T12:17:54;7.30;;;3.80;;
5499;SDS011;2772;42.700;23.304;2023-03-26T12:20:32;1.93;;;1.83;;
5499;SDS011;2772;42.700;23.304;2023-03-26T12:23:03;1.67;;;1.27;;
5499;SDS011;2772;42.700;23.304;2023-03-26T12:25:32;2.80;;;1.70;;
5499;SDS011;2772;42.700;23.304;2023-03-26T12:28:01;2.13;;;0.87;;
5499;SDS011;2772;42.700;23.304;2023-03-26T12:30:31;4.43;;;2.20;;
5499;SDS011;2772;42.700;23.304;2023-03-26T12:32:59;17.27;;;1.50;;
5499;SDS011;2772;42.700;23.304;2023-03-26T12:35:29;1.43;;;1.30;;
5499;SDS011;2772;42.700;23.304;2023-03-26T12:38:15;1.00;;;0.80;;
5499;SDS011;2772;42.700;23.304;2023-03-26T12:40:47;1.07;;;0.80;;
5499;SDS011;2772;42.700;23.304;2023-03-26T12:43:21;1.80;;;1.70;;
5499;SDS011;2772;42.700;23.304;2023-03-26T12:45:55;2.60;;;2.10;;
5499;SDS011;2772;42.700;23.304;2023-03-26T12:48:23;2.07;;;1.63;;
5499;SDS011;2772;42.700;23.304;2023-03-26T12:50:57;1.60;;;1.50;;
5499;SDS011;2772;42.700;23.304;2023-03-26T12:53:40;3.60;;;2.10;;
5499;SDS011;2772;42.700;23.304;2023-03-26T12:56:18;7.70;;;1.10;;
5499;SDS011;2772;42.700;23.304;2023-03-26T12:59:02;1.37;;;0.67;;
5499;SDS011;2772;42.700;23.304;2023-03-26T13:01:48;4.60;;;2.93;;
5499;SDS011;2772;42.700;23.304;2023-03-26T13:04:27;1.10;;;0.73;;
5499;SDS011;2772;42.700;23.304;2023-03-26T13:07:09;0.90;;;0.80;;
5499;SDS011;2772;42.700;23.304;2023-03-26T13:10:11;0.90;;;0.67;;
5499;SDS011;2772;42.700;23.304;2023-03-26T13:12:52;3.97;;;2.30;;
5499;SDS011;2772;42.700;23.304;2023-03-26T13:15:27;4.60;;;1.10;;
5499;SDS011;2772;42.700;23.304;2023-03-26T13:18:04;4.60;;;1.37;;
5499;SDS011;2772;42.700;23.304;2023-03-26T13:20:48;1.43;;;1.20;;
5499;SDS011;2772;42.700;23.304;2023-03-26T13:23:22;1.97;;;0.50;;
5499;SDS011;2772;42.700;23.304;2023-03-26T13:25:58;2.37;;;0.77;;
5499;SDS011;2772;42.700;23.304;2023-03-26T13:28:35;1.30;;;1.10;;
5499;SDS011;2772;42.700;23.304;2023-03-26T13:31:14;1.73;;;0.87;;
5499;SDS011;2772;42.700;23.304;2023-03-26T13:33:49;1.43;;;0.70;;
5499;SDS011;2772;42.700;23.304;2023-03-26T13:36:25;2.90;;;0.80;;
5499;SDS011;2772;42.700;23.304;2023-03-26T13:39:07;1.00;;;0.60;;
5499;SDS011;2772;42.700;23.304;2023-03-26T13:41:47;1.60;;;1.50;;
5499;SDS011;2772;42.700;23.304;2023-03-26T13:44:27;1.10;;;0.83;;
5499;SDS011;2772;42.700;23.304;2023-03-26T13:47:00;6.43;;;1.40;;
5499;SDS011;2772;42.700;23.304;2023-03-26T13:49:32;1.50;;;1.30;;
5499;SDS011;2772;42.700;23.304;2023-03-26T13:52:05;1.73;;;1.13;;
5499;SDS011;2772;42.700;23.304;2023-03-26T13:54:36;1.20;;;0.70;;
5499;SDS011;2772;42.700;23.304;2023-03-26T13:57:08;1.90;;;1.07;;
5499;SDS011;2772;42.700;23.304;2023-03-26T13:59:42;2.07;;;0.80;;
5499;SDS011;2772;42.700;23.304;2023-03-26T14:02:14;2.50;;;1.10;;
5499;SDS011;2772;42.700;23.304;2023-03-26T14:04:50;1.93;;;0.70;;
5499;SDS011;2772;42.700;23.304;2023-03-26T14:07:21;5.23;;;0.90;;
5499;SDS011;2772;42.700;23.304;2023-03-26T14:09:53;1.00;;;0.60;;
5499;SDS011;2772;42.700;23.304;2023-03-26T14:12:31;10.93;;;4.47;;
5499;SDS011;2772;42.700;23.304;2023-03-26T14:15:14;8.50;;;1.03;;
5499;SDS011;2772;42.700;23.304;2023-03-26T14:17:47;1.00;;;0.83;;
5499;SDS011;2772;42.700;23.304;2023-03-26T14:20:35;1.00;;;0.60;;
5499;SDS011;2772;42.700;23.304;2023-03-26T14:23:33;1.00;;;0.60;;
5499;SDS011;2772;42.700;23.304;2023-03-26T14:26:25;2.23;;;1.10;;
5499;SDS011;2772;42.700;23.304;2023-03-26T14:29:27;1.20;;;1.00;;
5499;SDS011;2772;42.700;23.304;2023-03-26T14:32:11;3.20;;;0.80;;
5499;SDS011;2772;42.700;23.304;2023-03-26T14:34:53;4.00;;;2.43;;
5499;SDS011;2772;42.700;23.304;2023-03-26T14:40:55;1.20;;;0.83;;
5499;SDS011;2772;42.700;23.304;2023-03-26T14:46:24;1.73;;;0.70;;
5499;SDS011;2772;42.700;23.304;2023-03-26T14:49:09;3.37;;;2.33;;
5499;SDS011;2772;42.700;23.304;2023-03-26T14:52:00;1.70;;;1.40;;
5499;SDS011;2772;42.700;23.304;2023-03-26T14:54:32;1.10;;;0.70;;
5499;SDS011;2772;42.700;23.304;2023-03-26T14:57:20;1.97;;;0.80;;
5499;SDS011;2772;42.700;23.304;2023-03-26T15:00:30;1.03;;;0.80;;
5499;SDS011;2772;42.700;23.304;2023-03-26T15:12:59;1.00;;;0.60;;
5499;SDS011;2772;42.700;23.304;2023-03-26T15:15:48;1.30;;;1.00;;
5499;SDS011;2772;42.700;23.304;2023-03-26T15:18:38;2.20;;;1.33;;
5499;SDS011;2772;42.700;23.304;2023-03-26T15:21:49;2.87;;;0.83;;
5499;SDS011;2772;42.700;23.304;2023-03-26T15:25:02;2.13;;;0.77;;
5499;SDS011;2772;42.700;23.304;2023-03-26T15:31:27;1.00;;;0.80;;
5499;SDS011;2772;42.700;23.304;2023-03-26T15:37:26;2.70;;;0.90;;
5499;SDS011;2772;42.700;23.304;2023-03-26T15:40:30;1.10;;;0.80;;
5499;SDS011;2772;42.700;23.304;2023-03-26T15:43:05;1.20;;;0.70;;
5499;SDS011;2772;42.700;23.304;2023-03-26T15:45:37;1.20;;;0.70;;
5499;SDS011;2772;42.700;23.304;2023-03-26T15:51:11;1.57;;;1.47;;
5499;SDS011;2772;42.700;23.304;2023-03-26T15:53:48;1.33;;;0.73;;
5499;SDS011;2772;42.700;23.304;2023-03-26T15:59:22;1.20;;;1.10;;
5499;SDS011;2772;42.700;23.304;2023-03-26T16:02:01;1.30;;;1.00;;
5499;SDS011;2772;42.700;23.304;2023-03-26T16:04:43;1.83;;;1.73;;
5499;SDS011;2772;42.700;23.304;2023-03-26T16:07:27;2.00;;;1.30;;
5499;SDS011;2772;42.700;23.304;2023-03-26T16:10:09;1.33;;;1.10;;
5499;SDS011;2772;42.700;23.304;2023-03-26T16:12:46;1.47;;;1.07;;
5499;SDS011;2772;42.700;23.304;2023-03-26T16:15:27;3.43;;;1.70;;
5499;SDS011;2772;42.700;23.304;2023-03-26T16:18:14;1.10;;;0.90;;
5499;SDS011;2772;42.700;23.304;2023-03-26T16:20:48;1.00;;;0.70;;
5499;SDS011;2772;42.700;23.304;2023-03-26T16:23:19;1.37;;;1.27;;
5499;SDS011;2772;42.700;23.304;2023-03-26T16:25:55;1.70;;;1.00;;
5499;SDS011;2772;42.700;23.304;2023-03-26T16:28:29;1.73;;;1.30;;
5499;SDS011;2772;42.700;23.304;2023-03-26T16:36:49;2.70;;;1.53;;
5499;SDS011;2772;42.700;23.304;2023-03-26T16:39:20;2.50;;;1.60;;
5499;SDS011;2772;42.700;23.304;2023-03-26T16:41:54;5.63;;;1.60;;
5499;SDS011;2772;42.700;23.304;2023-03-26T16:44:27;1.40;;;1.30;;
5499;SDS011;2772;42.700;23.304;2023-03-26T16:47:03;6.10;;;2.73;;
5499;SDS011;2772;42.700;23.304;2023-03-26T16:52:40;1.83;;;1.73;;
5499;SDS011;2772;42.700;23.304;2023-03-26T16:55:15;2.30;;;2.10;;